Time;durP1;ratioP1;P1;durP2;ratioP2;P2;SDS_P1;SDS_P2;PMS_P1;PMS_P2;Temp;Humidity;BMP_temperature;BMP_pressure;BME280_temperature;BME280_humidity;BME280_pressure;Samples;Min_cycle;Max_cycle;Signal;HPM_P1;HPM_P2
2022/11/19 00:00:49;;;;;;;33.15;8.75;;;;;;;17.42;81.61;99424.22;5052459;28;20040;-76
2022/11/19 00:03:17;;;;;;;29.33;7.40;;;;;;;17.57;81.46;99454.03;5052325;28;20029;-75
2022/11/19 00:05:45;;;;;;;23.02;7.18;;;;;;;17.59;81.21;99442.94;5051646;28;20092;-75
2022/11/19 00:08:12;;;;;;;23.15;6.32;;;;;;;17.58;80.91;99450.28;5052552;28;20116;-75
2022/11/19 00:10:39;;;;;;;23.48;6.32;;;;;;;17.40;80.67;99420.84;5052350;28;20564;-76
2022/11/19 00:13:06;;;;;;;23.08;6.25;;;;;;;17.57;80.60;99448.59;5052209;28;20078;-75
2022/11/19 00:15:36;;;;;;;22.20;6.72;;;;;;;17.64;80.52;99460.38;5050885;28;20036;-76
2022/11/19 00:18:03;;;;;;;22.95;6.22;;;;;;;17.65;80.42;99466.63;5051982;28;20036;-77
2022/11/19 00:20:29;;;;;;;27.38;7.53;;;;;;;17.62;80.15;99457.00;5051483;28;20029;-74
2022/11/19 00:22:59;;;;;;;22.80;6.80;;;;;;;17.65;80.42;99461.19;5052225;28;20059;-76
2022/11/19 00:25:26;;;;;;;24.83;6.57;;;;;;;17.54;80.00;99437.25;5057437;28;20060;-76
2022/11/19 00:27:52;;;;;;;15.27;5.72;;;;;;;17.58;80.00;99450.28;5057467;28;20037;-77
2022/11/19 00:30:18;;;;;;;20.95;6.53;;;;;;;17.73;79.92;99482.81;5052341;28;20111;-76
2022/11/19 00:32:44;;;;;;;22.40;7.05;;;;;;;17.76;79.90;99491.41;5051847;28;20028;-76
2022/11/19 00:35:10;;;;;;;26.00;6.57;;;;;;;17.61;79.68;99459.94;5052104;28;20024;-75
2022/11/19 00:37:36;;;;;;;16.10;5.97;;;;;;;17.79;79.48;99492.91;5052022;28;20033;-76
2022/11/19 00:40:02;;;;;;;22.00;6.20;;;;;;;17.75;79.58;99484.28;5052163;28;20032;-77
2022/11/19 00:42:27;;;;;;;21.08;5.90;;;;;;;17.78;79.63;99485.78;5051271;28;20377;-77
2022/11/19 00:44:53;;;;;;;26.42;6.85;;;;;;;17.78;79.68;99485.78;5051644;28;20029;-76
2022/11/19 00:47:18;;;;;;;23.65;6.55;;;;;;;17.80;79.36;99489.97;5051173;28;20518;-75
2022/11/19 00:49:44;;;;;;;16.92;6.10;;;;;;;17.82;78.98;99489.78;5050915;28;20040;-75
2022/11/19 00:52:10;;;;;;;26.33;7.32;;;;;;;17.80;78.83;99489.13;5051056;28;20028;-75
2022/11/19 00:54:36;;;;;;;20.85;5.88;;;;;;;17.55;78.87;99455.28;5050923;28;20021;-75
2022/11/19 00:57:01;;;;;;;26.25;5.93;;;;;;;17.84;78.71;99499.41;5051157;28;20075;-76
2022/11/19 00:59:27;;;;;;;23.17;5.90;;;;;;;17.83;78.18;99492.28;5051155;28;20070;-75
2022/11/19 01:01:52;;;;;;;25.38;5.97;;;;;;;17.82;78.40;99500.66;5051171;28;20630;-76
2022/11/19 01:04:18;;;;;;;22.25;6.10;;;;;;;17.63;78.27;99457.84;5050955;28;20025;-75
2022/11/19 01:06:43;;;;;;;23.58;6.90;;;;;;;17.66;78.12;99473.75;5049608;28;20024;-76
2022/11/19 01:09:09;;;;;;;19.08;7.20;;;;;;;17.78;77.96;99496.66;5050944;28;20404;-76
2022/11/19 01:11:36;;;;;;;17.00;6.40;;;;;;;17.84;78.07;99504.00;5050971;28;20110;-76
2022/11/19 01:14:02;;;;;;;24.05;7.30;;;;;;;17.84;77.97;99520.34;5050859;28;20037;-76
2022/11/19 01:16:30;;;;;;;18.42;6.18;;;;;;;17.83;77.68;99533.09;5050258;28;20032;-76
2022/11/19 01:18:56;;;;;;;20.33;6.18;;;;;;;17.83;77.72;99527.66;5048221;28;20076;-75
2022/11/19 01:21:26;;;;;;;28.30;7.07;;;;;;;17.84;77.73;99532.06;5049692;28;20036;-77
2022/11/19 01:23:52;;;;;;;27.23;7.50;;;;;;;17.85;77.62;99539.19;5050997;28;20037;-77
2022/11/19 01:26:18;;;;;;;28.35;6.82;;;;;;;17.69;77.60;99506.00;5050814;28;20037;-76
2022/11/19 01:28:44;;;;;;;33.00;9.30;;;;;;;17.80;77.54;99521.75;5050703;28;20446;-75
2022/11/19 01:31:14;;;;;;;36.15;9.23;;;;;;;17.84;77.46;99526.63;5050654;28;20090;-76
2022/11/19 01:33:40;;;;;;;26.77;10.15;;;;;;;17.69;77.11;99506.84;5050738;28;20025;-76
2022/11/19 01:36:10;;;;;;;33.03;10.25;;;;;;;17.89;77.05;99539.59;5051983;28;20090;-76
2022/11/19 01:38:36;;;;;;;25.15;8.63;;;;;;;17.88;76.81;99536.06;5050746;28;20496;-75
2022/11/19 01:41:02;;;;;;;21.15;7.05;;;;;;;17.84;76.65;99542.09;5051817;28;20043;-75
2022/11/19 01:43:46;;;;;;;20.63;8.65;;;;;;;17.83;76.79;99534.97;5051792;28;20031;-76
2022/11/19 01:46:15;;;;;;;24.50;8.25;;;;;;;17.61;76.72;99498.00;5053742;28;20125;-78
2022/11/19 01:48:50;;;;;;;20.42;7.25;;;;;;;17.81;76.77;99543.34;5066164;28;20048;-75
2022/11/19 01:51:21;;;;;;;21.42;7.65;;;;;;;17.81;76.63;99542.50;5053478;28;20099;-75
2022/11/19 01:53:50;;;;;;;18.83;7.90;;;;;;;17.78;76.33;99537.44;5032810;28;20041;-76
2022/11/19 01:56:19;;;;;;;23.00;7.70;;;;;;;17.75;76.64;99554.16;5050816;28;20025;-76
2022/11/19 01:58:47;;;;;;;31.45;7.88;;;;;;;17.72;76.52;99539.06;5050646;28;20488;-74
2022/11/19 02:01:16;;;;;;;23.02;8.32;;;;;;;17.75;76.57;99535.97;5050787;28;20029;-75
2022/11/19 02:03:42;;;;;;;15.40;6.85;;;;;;;17.73;76.69;99546.22;5048468;28;20049;-75
2022/11/19 02:06:08;;;;;;;28.52;7.57;;;;;;;17.64;76.75;99541.94;5050498;28;20488;-75
2022/11/19 02:08:46;;;;;;;24.42;7.32;;;;;;;17.66;76.81;99544.47;5050866;28;20074;-76
2022/11/19 02:11:35;;;;;;;20.75;6.78;;;;;;;17.71;76.62;99531.09;5050576;28;20025;-77
2022/11/19 02:14:45;;;;;;;16.55;5.90;;;;;;;17.67;76.68;99529.84;5050599;28;20060;-75
2022/11/19 02:17:10;;;;;;;20.52;6.65;;;;;;;17.67;76.72;99544.28;5050270;28;20801;-75
2022/11/19 02:20:13;;;;;;;13.32;6.05;;;;;;;17.71;76.61;99539.25;5049971;28;20048;-75
2022/11/19 02:23:19;;;;;;;16.85;6.47;;;;;;;17.68;76.79;99553.25;5050387;28;20530;-77
2022/11/19 02:26:18;;;;;;;16.42;6.95;;;;;;;17.68;76.45;99564.13;5049962;28;20123;-75
2022/11/19 02:28:52;;;;;;;20.35;6.13;;;;;;;17.62;76.37;99564.91;5051673;28;20462;-76
2022/11/19 02:31:30;;;;;;;21.92;6.05;;;;;;;17.67;76.34;99574.19;5054273;28;20021;-76
2022/11/19 02:33:58;;;;;;;18.20;6.68;;;;;;;17.25;76.17;99508.91;5053946;28;20044;-76
2022/11/19 02:36:34;;;;;;;15.32;7.25;;;;;;;17.66;76.05;99587.97;5053722;28;20451;-75
2022/11/19 02:39:20;;;;;;;23.77;8.63;;;;;;;17.69;75.99;99614.75;5054016;28;20139;-76
2022/11/19 02:41:55;;;;;;;26.15;8.68;;;;;;;17.69;75.51;99610.19;5051685;28;20567;-76
2022/11/19 02:47:21;;;;;;;;;;;;;;;17.70;74.99;99616.47;5060434;28;20051;-76
2022/11/19 02:49:50;;;;;;;22.95;8.23;;;;;;;17.67;74.75;99625.00;5061796;28;20358;-76
2022/11/19 02:52:17;;;;;;;25.88;7.85;;;;;;;17.65;74.88;99622.47;5057776;28;20025;-75
2022/11/19 02:54:43;;;;;;;20.52;7.13;;;;;;;17.66;74.69;99620.59;5053942;28;20051;-76
2022/11/19 02:57:11;;;;;;;24.35;6.75;;;;;;;17.41;74.33;99580.19;5053910;28;20469;-75
2022/11/19 03:05:43;;;;;;;13.70;6.57;;;;;;;17.65;70.91;99644.22;5053990;28;20058;-76
2022/11/19 03:08:09;;;;;;;33.15;7.75;;;;;;;17.67;70.78;99641.31;5054365;28;20655;-76
2022/11/19 03:10:53;;;;;;;15.75;7.45;;;;;;;17.67;70.53;99642.16;5053372;28;20029;-76
2022/11/19 03:16:41;;;;;;;20.75;9.77;;;;;;;17.69;70.34;99666.44;5011131;28;20522;-76
2022/11/19 03:19:19;;;;;;;36.63;11.27;;;;;;;17.67;70.30;99673.97;5011103;28;20077;-76
2022/11/19 03:21:50;;;;;;;27.50;10.40;;;;;;;17.68;70.31;99670.19;5010888;28;20046;-76
2022/11/19 03:24:22;;;;;;;32.95;10.20;;;;;;;17.71;70.33;99672.50;5010818;28;20038;-75
2022/11/19 03:26:55;;;;;;;32.28;11.30;;;;;;;17.69;70.45;99680.03;5010746;28;20073;-76
2022/11/19 03:29:23;;;;;;;28.80;10.45;;;;;;;17.62;70.28;99674.53;5010741;28;20112;-76
2022/11/19 03:31:57;;;;;;;18.25;10.18;;;;;;;17.56;70.43;99686.16;5010989;28;20068;-76
2022/11/19 03:34:27;;;;;;;19.70;8.55;;;;;;;17.53;70.55;99664.78;5011065;28;20065;-76
2022/11/19 03:36:58;;;;;;;25.42;9.30;;;;;;;17.64;70.42;99687.94;5010958;28;20037;-76
2022/11/19 03:39:24;;;;;;;15.55;7.20;;;;;;;17.69;70.35;99709.94;5010508;28;20058;-75
2022/11/19 03:41:52;;;;;;;25.27;6.70;;;;;;;17.51;70.35;99693.19;5010166;28;20161;-76
2022/11/19 03:44:24;;;;;;;14.45;6.55;;;;;;;17.65;70.47;99724.97;5010801;28;20029;-76
2022/11/19 03:46:56;;;;;;;21.63;6.38;;;;;;;17.65;70.28;99735.84;5010632;28;20038;-77
2022/11/19 03:49:30;;;;;;;22.70;5.63;;;;;;;17.61;70.16;99740.84;5010444;28;20081;-76
2022/11/19 03:52:03;;;;;;;12.18;5.47;;;;;;;17.59;69.97;99750.19;5014177;28;20080;-75
2022/11/19 03:54:28;;;;;;;14.82;5.30;;;;;;;17.58;69.85;99748.53;5052701;28;20025;-75
2022/11/19 03:56:56;;;;;;;12.98;4.80;;;;;;;17.59;69.79;99758.34;5054903;28;20033;-76
2022/11/19 03:59:22;;;;;;;6.32;3.20;;;;;;;17.62;69.48;99777.00;5059127;28;20025;-75
2022/11/19 04:01:50;;;;;;;12.52;3.67;;;;;;;17.61;69.19;99778.06;5058122;28;20090;-75
2022/11/19 04:07:00;;;;;;;10.45;4.55;;;;;;;17.65;69.04;99784.78;5052332;28;20178;-74
2022/11/19 04:09:25;;;;;;;14.68;3.80;;;;;;;17.52;68.87;99760.13;5052292;28;20165;-76
2022/11/19 04:11:50;;;;;;;7.95;3.38;;;;;;;17.72;68.61;99791.16;5052392;28;20472;-75
2022/11/19 04:14:16;;;;;;;4.72;3.22;;;;;;;17.74;68.41;99802.69;5052017;28;20029;-74
2022/11/19 04:16:41;;;;;;;4.22;2.30;;;;;;;17.77;68.16;99794.13;5051597;28;20025;-74
2022/11/19 04:19:07;;;;;;;5.95;2.90;;;;;;;17.76;67.98;99800.63;5051609;28;20025;-74
2022/11/19 04:21:32;;;;;;;6.80;2.45;;;;;;;17.76;67.62;99795.19;5051992;28;20116;-76
2022/11/19 04:23:57;;;;;;;3.40;2.20;;;;;;;17.61;67.68;99786.22;5052226;28;20113;-77
2022/11/19 04:26:23;;;;;;;2.65;1.95;;;;;;;17.80;67.58;99812.78;5052250;28;20021;-75
2022/11/19 04:28:48;;;;;;;3.63;2.00;;;;;;;17.83;67.34;99815.13;5052063;28;20101;-75
2022/11/19 04:31:14;;;;;;;8.07;2.05;;;;;;;17.81;67.23;99819.94;5052081;28;20103;-76
2022/11/19 04:33:39;;;;;;;7.57;2.00;;;;;;;17.81;67.28;99819.94;5051900;28;20036;-74
2022/11/19 04:36:05;;;;;;;5.43;2.30;;;;;;;17.84;67.16;99838.59;5051738;28;20032;-74
2022/11/19 04:38:30;;;;;;;9.98;2.47;;;;;;;17.64;67.20;99802.16;5051850;28;20032;-76
2022/11/19 04:40:56;;;;;;;5.78;2.17;;;;;;;17.68;67.81;99811.59;5051471;28;20047;-76
2022/11/19 04:43:21;;;;;;;5.50;2.45;;;;;;;17.82;67.81;99857.84;5051599;28;20024;-76
2022/11/19 04:45:46;;;;;;;9.00;2.03;;;;;;;17.76;68.29;99863.19;5051326;28;20503;-74
2022/11/19 04:48:12;;;;;;;12.52;2.60;;;;;;;17.62;68.87;99858.59;5065568;28;20056;-75
2022/11/19 04:50:37;;;;;;;5.63;2.10;;;;;;;17.69;68.90;99873.13;5051252;28;20061;-74
2022/11/19 04:53:03;;;;;;;2.17;1.83;;;;;;;17.70;68.70;99888.41;5051049;28;20473;-75
2022/11/19 04:55:28;;;;;;;4.25;2.50;;;;;;;17.72;69.03;99891.78;5051305;28;20025;-75
2022/11/19 04:57:54;;;;;;;6.85;2.20;;;;;;;17.70;68.85;99886.53;5051779;28;20025;-74
2022/11/19 05:00:19;;;;;;;5.60;2.03;;;;;;;17.62;69.00;99880.34;5052040;28;20104;-76
2022/11/19 05:02:45;;;;;;;5.47;1.95;;;;;;;17.67;69.50;99905.13;5053278;28;20057;-77
2022/11/19 05:05:10;;;;;;;3.88;1.95;;;;;;;17.70;69.53;99905.59;5052350;28;20040;-75
2022/11/19 05:07:35;;;;;;;6.60;2.00;;;;;;;17.70;69.68;99911.03;5053828;28;20039;-75
2022/11/19 05:10:01;;;;;;;7.30;2.22;;;;;;;17.71;69.68;99920.00;5056195;28;20024;-75
2022/11/19 05:12:26;;;;;;;2.53;2.00;;;;;;;17.71;69.62;99911.84;5054493;28;20029;-78
2022/11/19 05:14:52;;;;;;;7.07;1.92;;;;;;;17.72;69.61;99925.28;5051184;28;20032;-75
2022/11/19 05:17:17;;;;;;;14.07;2.25;;;;;;;17.71;69.52;99934.44;5051196;28;20032;-75
2022/11/19 05:19:42;;;;;;;2.90;2.35;;;;;;;17.64;69.58;99927.25;5050864;28;20029;-74
2022/11/19 05:22:08;;;;;;;5.22;2.50;;;;;;;17.74;69.49;99941.38;5050585;28;20029;-75
2022/11/19 05:24:33;;;;;;;6.50;2.30;;;;;;;17.68;69.30;99940.25;5050629;28;20056;-74
2022/11/19 05:26:59;;;;;;;5.38;2.60;;;;;;;17.56;68.89;99928.16;5050237;28;20052;-74
2022/11/19 05:29:24;;;;;;;3.17;2.53;;;;;;;17.64;68.64;99935.41;5050255;28;20028;-73
2022/11/19 05:31:50;;;;;;;3.85;2.75;;;;;;;17.66;68.69;99949.66;5050769;28;20571;-74
2022/11/19 05:34:15;;;;;;;6.97;3.25;;;;;;;17.67;68.54;99964.94;5050308;28;20033;-73
2022/11/19 05:36:40;;;;;;;8.95;2.50;;;;;;;17.69;68.45;99971.03;5050547;28;20139;-74
2022/11/19 05:39:06;;;;;;;11.30;7.00;;;;;;;17.66;68.42;99979.56;5050523;28;20021;-77
2022/11/19 05:41:32;;;;;;;8.50;5.00;;;;;;;17.68;68.22;99977.50;5050119;28;20106;-74
2022/11/19 05:43:57;;;;;;;20.02;11.40;;;;;;;17.71;68.32;99986.13;5049961;28;20061;-74
2022/11/19 05:46:22;;;;;;;17.80;4.75;;;;;;;17.68;68.22;99993.81;5050543;28;20025;-75
2022/11/19 05:48:48;;;;;;;8.95;3.67;;;;;;;17.53;68.28;99969.28;5050418;28;20047;-74
2022/11/19 05:51:14;;;;;;;5.55;2.40;;;;;;;17.47;68.62;99993.66;5050025;28;20036;-74
2022/11/19 05:53:40;;;;;;;5.82;2.75;;;;;;;17.56;68.77;100017.03;5050379;28;20035;-74
2022/11/19 05:56:06;;;;;;;3.83;3.00;;;;;;;17.57;68.96;100024.19;5049743;28;20040;-74
2022/11/19 05:58:31;;;;;;;8.82;3.40;;;;;;;17.59;69.12;100043.88;5049915;28;20053;-74
2022/11/19 06:00:58;;;;;;;5.40;3.25;;;;;;;17.57;69.53;100043.22;5049819;28;20033;-75
2022/11/19 06:03:23;;;;;;;6.80;2.88;;;;;;;17.55;69.71;100031.69;5049494;28;20030;-74
2022/11/19 06:05:49;;;;;;;6.57;4.03;;;;;;;17.70;69.96;100057.03;5050301;28;20033;-76
2022/11/19 06:08:15;;;;;;;9.40;3.50;;;;;;;17.68;69.73;100053.63;5049872;28;20101;-75
2022/11/19 06:10:40;;;;;;;11.18;3.65;;;;;;;17.52;69.40;100037.47;5049706;28;20033;-74
2022/11/19 06:13:06;;;;;;;7.68;3.38;;;;;;;17.72;69.12;100077.59;5051267;28;20029;-74
2022/11/19 06:15:31;;;;;;;5.53;3.28;;;;;;;17.68;69.28;100075.41;5053033;28;20025;-80
2022/11/19 06:17:57;;;;;;;5.60;3.40;;;;;;;17.68;67.56;100086.28;5065722;28;20036;-75
2022/11/19 06:20:22;;;;;;;29.23;13.57;;;;;;;17.61;66.70;100074.47;5053074;28;20108;-75
2022/11/19 06:22:47;;;;;;;8.88;5.97;;;;;;;17.56;66.08;100052.41;5049912;28;20052;-74
2022/11/19 06:25:13;;;;;;;10.68;3.78;;;;;;;17.65;65.84;100065.75;5049875;28;20017;-75
2022/11/19 06:27:38;;;;;;;24.38;5.15;;;;;;;17.43;64.92;100056.53;5050728;28;20182;-74
2022/11/19 06:30:06;;;;;;;10.57;3.75;;;;;;;17.50;64.50;100100.16;5049563;28;20127;-73
2022/11/19 06:32:31;;;;;;;7.80;3.22;;;;;;;17.45;64.25;100097.16;5049966;28;20044;-74
2022/11/19 06:34:57;;;;;;;18.85;4.60;;;;;;;17.47;64.25;100105.13;5049908;28;20504;-75
2022/11/19 06:37:22;;;;;;;11.32;3.05;;;;;;;17.44;63.37;100103.63;5049878;28;20029;-75
2022/11/19 06:39:48;;;;;;;15.30;3.88;;;;;;;17.40;63.08;100122.16;5049508;28;20115;-75
2022/11/19 06:44:57;;;;;;;7.22;4.10;;;;;;;17.37;62.31;100121.66;5050221;28;20116;-76
2022/11/19 06:47:23;;;;;;;6.25;3.42;;;;;;;17.37;61.79;100144.25;5050440;28;20063;-76
2022/11/19 06:49:48;;;;;;;4.57;3.20;;;;;;;17.41;61.37;100150.19;5049442;28;20029;-76
2022/11/19 06:52:14;;;;;;;19.92;12.45;;;;;;;17.43;61.03;100151.69;5049830;28;20032;-76
2022/11/19 06:54:39;;;;;;;15.07;8.75;;;;;;;17.40;60.72;100148.50;5047644;28;20037;-76
2022/11/19 06:57:05;;;;;;;13.35;3.88;;;;;;;17.41;60.90;100144.75;5049520;28;20040;-77
2022/11/19 06:59:30;;;;;;;9.50;3.65;;;;;;;17.48;60.34;100139.44;5049960;28;20032;-77
2022/11/19 07:01:55;;;;;;;8.07;4.15;;;;;;;17.59;59.42;100136.31;5049946;28;20036;-77
2022/11/19 07:04:21;;;;;;;8.73;3.38;;;;;;;17.57;59.14;100138.41;5048445;28;20027;-78
2022/11/19 07:06:47;;;;;;;4.68;3.45;;;;;;;17.62;58.71;100130.53;5049981;28;20036;-79
2022/11/19 07:09:12;;;;;;;5.78;3.08;;;;;;;17.68;58.42;100148.84;5049751;28;20025;-77
2022/11/19 07:11:37;;;;;;;6.57;3.55;;;;;;;17.52;57.91;100119.03;5050102;28;20033;-77
2022/11/19 07:14:03;;;;;;;9.45;3.15;;;;;;;17.80;56.93;100150.94;5052795;28;20112;-77
2022/11/19 07:16:31;;;;;;;14.88;2.80;;;;;;;17.81;56.65;100157.22;5069099;28;20444;-77
2022/11/19 07:18:58;;;;;;;13.45;2.92;;;;;;;17.83;56.74;100157.88;5070442;28;20025;-76
2022/11/19 07:21:25;;;;;;;14.18;3.30;;;;;;;17.82;56.45;100172.53;5076757;28;20108;-77
2022/11/19 07:23:50;;;;;;;13.43;3.10;;;;;;;17.82;56.03;100175.25;5060323;28;20031;-77
2022/11/19 07:26:16;;;;;;;9.15;2.72;;;;;;;17.83;56.04;100179.66;5059893;28;20033;-76
2022/11/19 07:28:41;;;;;;;17.63;4.05;;;;;;;17.80;55.97;100186.31;5058391;28;20082;-77
2022/11/19 07:31:07;;;;;;;16.15;4.00;;;;;;;17.76;56.18;100173.28;5053117;28;20045;-78
2022/11/19 07:33:34;;;;;;;11.55;4.28;;;;;;;17.80;56.14;100193.63;5050502;28;20021;-78
2022/11/19 07:36:01;;;;;;;9.40;5.47;;;;;;;17.83;56.05;100199.53;5031832;28;20087;-78
2022/11/19 07:38:27;;;;;;;13.65;9.15;;;;;;;17.88;56.04;100202.59;5031263;28;20055;-77
2022/11/19 07:40:53;;;;;;;15.55;5.20;;;;;;;17.84;56.03;100201.25;5037741;28;20041;-77
2022/11/19 07:43:19;;;;;;;6.15;3.10;;;;;;;17.89;55.99;100200.69;5051845;28;20425;-81
2022/11/19 07:45:45;;;;;;;5.32;3.67;;;;;;;17.93;55.94;100205.59;5051002;28;20075;-76
2022/11/19 07:48:10;;;;;;;30.73;6.25;;;;;;;17.80;56.21;100194.47;5050553;28;20045;-73
2022/11/19 07:50:36;;;;;;;5.18;2.63;;;;;;;17.97;56.15;100216.97;5050902;28;20103;-73
2022/11/19 07:53:01;;;;;;;10.82;3.53;;;;;;;18.07;56.24;100222.97;5051259;28;20032;-75
2022/11/19 07:55:27;;;;;;;15.02;9.77;;;;;;;18.08;56.25;100216.53;5053329;28;20211;-77
2022/11/19 07:57:52;;;;;;;7.05;4.60;;;;;;;18.13;56.30;100205.09;5051182;28;20044;-76
2022/11/19 08:00:18;;;;;;;9.75;3.90;;;;;;;18.23;55.82;100214.69;5050929;28;20025;-75
2022/11/19 08:02:44;;;;;;;6.32;3.28;;;;;;;18.41;55.85;100225.22;5050918;28;20039;-74
2022/11/19 08:05:09;;;;;;;5.63;3.30;;;;;;;18.44;55.96;100216.69;5049129;28;20033;-75
2022/11/19 08:07:38;;;;;;;7.97;3.63;;;;;;;18.48;55.84;100227.03;5050087;28;20043;-75
2022/11/19 08:10:05;;;;;;;11.90;3.58;;;;;;;18.53;55.77;100228.41;5050577;28;20078;-75
2022/11/19 08:12:32;;;;;;;8.60;3.10;;;;;;;18.54;55.62;100241.81;5050498;28;20083;-75
2022/11/19 08:14:57;;;;;;;8.98;2.78;;;;;;;18.56;55.46;100249.81;5050674;28;20040;-74
2022/11/19 08:20:07;;;;;;;11.13;4.07;;;;;;;18.58;55.36;100236.84;5050197;28;20095;-74
2022/11/19 08:22:35;;;;;;;10.60;3.95;;;;;;;18.62;55.45;100251.81;5050031;28;20480;-74
2022/11/19 08:25:01;;;;;;;9.88;3.75;;;;;;;18.63;55.15;100245.31;5050253;28;20036;-75
2022/11/19 08:27:26;;;;;;;7.03;4.22;;;;;;;18.41;55.04;100204.31;5049556;28;20419;-75
2022/11/19 08:29:52;;;;;;;10.50;5.35;;;;;;;18.78;54.79;100259.78;5050230;28;20024;-75
2022/11/19 08:32:17;;;;;;;8.15;5.53;;;;;;;18.63;54.98;100227.09;5054272;28;20039;-77
2022/11/19 08:34:43;;;;;;;14.20;4.25;;;;;;;18.80;54.40;100257.75;5054084;28;20029;-75
2022/11/19 08:37:10;;;;;;;11.23;3.92;;;;;;;18.88;53.84;100282.16;5051469;28;20033;-75
2022/11/19 08:39:35;;;;;;;7.57;3.45;;;;;;;18.93;53.20;100279.72;5050152;28;20111;-76
2022/11/19 08:44:45;;;;;;;9.05;3.38;;;;;;;18.92;52.19;100258.97;5050015;28;20553;-76
2022/11/19 08:47:10;;;;;;;14.23;3.65;;;;;;;18.97;52.15;100270.16;5047953;28;20045;-75
2022/11/19 08:49:36;;;;;;;11.10;3.85;;;;;;;19.14;52.38;100282.56;5050835;28;20063;-74
2022/11/19 08:52:01;;;;;;;5.45;3.25;;;;;;;19.36;51.74;100294.38;5050746;28;20025;-75
2022/11/19 08:54:27;;;;;;;9.95;4.15;;;;;;;19.52;51.46;100303.25;5052262;28;20143;-76
2022/11/19 08:56:52;;;;;;;23.02;3.45;;;;;;;19.65;50.58;100312.63;5052175;28;20024;-74
2022/11/19 08:59:20;;;;;;;11.52;3.75;;;;;;;19.73;50.18;100320.69;5050552;28;20044;-76
2022/11/19 09:01:46;;;;;;;19.20;3.75;;;;;;;19.63;49.87;100284.72;5050616;28;20029;-76
2022/11/19 09:04:11;;;;;;;5.90;3.33;;;;;;;19.82;49.99;100314.09;5049547;28;20027;-75
2022/11/19 09:06:37;;;;;;;12.77;4.40;;;;;;;19.73;50.45;100309.78;5050625;28;20025;-76
2022/11/19 09:09:03;;;;;;;15.52;4.10;;;;;;;19.59;51.10;100316.13;5050264;28;20025;-75
2022/11/19 09:11:29;;;;;;;12.35;4.03;;;;;;;19.43;51.74;100326.22;5050247;28;20029;-75
2022/11/19 09:13:56;;;;;;;15.32;4.70;;;;;;;19.31;52.22;100310.47;5050160;28;20043;-73
2022/11/19 09:16:22;;;;;;;5.35;4.00;;;;;;;19.28;52.44;100328.06;5049924;28;20181;-75
2022/11/19 09:18:47;;;;;;;14.25;5.40;;;;;;;19.12;52.84;100322.78;5050163;28;20029;-74
2022/11/19 09:21:13;;;;;;;15.02;5.07;;;;;;;18.88;53.16;100309.41;5051404;28;20033;-74
2022/11/19 09:23:41;;;;;;;9.32;4.82;;;;;;;18.94;53.28;100314.97;5052848;28;20476;-74
2022/11/19 09:26:12;;;;;;;14.55;6.28;;;;;;;18.88;53.38;100320.31;5050257;28;20517;-74
2022/11/19 09:28:38;;;;;;;18.67;6.28;;;;;;;18.74;53.57;100299.34;5049748;28;20076;-74
2022/11/19 09:31:08;;;;;;;16.63;6.72;;;;;;;18.91;53.57;100336.31;5050303;28;20057;-75
2022/11/19 09:33:35;;;;;;;17.58;6.80;;;;;;;18.92;53.67;100329.84;5047402;28;20037;-74
2022/11/19 09:36:00;;;;;;;13.40;5.82;;;;;;;18.92;53.49;100354.38;5049788;28;20017;-74
2022/11/19 09:38:26;;;;;;;12.50;6.10;;;;;;;18.79;53.36;100316.00;5050058;28;20035;-75
2022/11/19 09:40:53;;;;;;;31.35;6.25;;;;;;;19.15;53.51;100355.13;5054396;28;20115;-75
2022/11/19 09:43:43;;;;;;;19.35;5.75;;;;;;;19.30;52.76;100353.25;5053007;28;20036;-75
2022/11/19 09:46:36;;;;;;;23.25;7.00;;;;;;;19.53;52.46;100345.88;5049750;28;20036;-76
2022/11/19 09:49:09;;;;;;;26.00;5.78;;;;;;;19.76;51.52;100342.16;5049394;28;20052;-75
2022/11/19 09:51:38;;;;;;;10.98;5.03;;;;;;;19.61;50.88;100289.50;5049482;28;20079;-75
2022/11/19 09:54:13;;;;;;;16.88;6.05;;;;;;;20.01;50.60;100351.69;5049924;28;20025;-75
2022/11/19 09:56:41;;;;;;;11.98;4.68;;;;;;;20.03;50.17;100363.25;5031553;28;20480;-74
2022/11/19 09:59:29;;;;;;;13.80;4.43;;;;;;;19.96;49.99;100367.81;5049846;28;20025;-73
2022/11/19 10:01:57;;;;;;;20.27;4.50;;;;;;;19.97;49.91;100366.75;5049450;28;20047;-75
2022/11/19 10:04:26;;;;;;;12.00;4.22;;;;;;;19.75;49.88;100324.09;5049592;28;20063;-74
2022/11/19 10:07:17;;;;;;;11.55;4.07;;;;;;;19.97;49.96;100362.16;5048347;28;20384;-74
2022/11/19 10:10:01;;;;;;;19.23;3.63;;;;;;;20.00;49.86;100359.03;5049595;28;20040;-74
2022/11/19 10:12:47;;;;;;;7.63;3.60;;;;;;;20.04;49.18;100357.63;5049211;28;20068;-75
2022/11/19 10:15:27;;;;;;;8.65;3.92;;;;;;;19.81;49.28;100335.13;5049491;28;20033;-75
2022/11/19 10:18:22;;;;;;;9.80;4.38;;;;;;;19.99;49.65;100367.44;5049506;28;20033;-74
2022/11/19 10:20:53;;;;;;;7.72;3.72;;;;;;;19.99;49.31;100370.16;5049269;28;20041;-74
2022/11/19 10:23:37;;;;;;;10.32;4.25;;;;;;;19.98;49.32;100371.19;5049329;28;20456;-74
2022/11/19 10:26:09;;;;;;;34.92;6.20;;;;;;;19.90;49.51;100358.53;5049287;28;20040;-73
2022/11/19 10:28:39;;;;;;;8.50;4.80;;;;;;;19.97;49.47;100372.22;5049647;28;20496;-76
2022/11/19 10:31:36;;;;;;;11.55;4.18;;;;;;;20.00;49.29;100377.31;5049511;28;20032;-77
2022/11/19 10:34:10;;;;;;;11.07;4.22;;;;;;;20.04;49.28;100375.91;4994349;28;20612;-75
2022/11/19 10:36:43;;;;;;;7.30;3.63;;;;;;;20.09;49.17;100376.16;5007894;28;20046;-75
2022/11/19 10:39:18;;;;;;;32.20;5.82;;;;;;;20.16;48.86;100382.53;5007301;28;20034;-76
2022/11/19 10:41:52;;;;;;;11.13;5.13;;;;;;;20.25;48.56;100375.94;5007048;28;20040;-74
2022/11/19 10:44:41;;;;;;;18.50;4.70;;;;;;;20.26;48.68;100374.94;5007316;28;20041;-76
2022/11/19 10:47:19;;;;;;;6.45;4.43;;;;;;;20.28;48.66;100375.56;5009149;28;20098;-77
2022/11/19 10:49:51;;;;;;;6.70;4.25;;;;;;;20.17;48.44;100358.81;5011354;28;20052;-75
2022/11/19 10:52:32;;;;;;;12.18;4.68;;;;;;;20.39;48.54;100380.53;5013783;28;20133;-75
2022/11/19 10:55:03;;;;;;;30.40;4.78;;;;;;;20.33;48.48;100354.00;5011725;28;20042;-77
2022/11/19 10:57:31;;;;;;;11.50;3.72;;;;;;;20.62;48.06;100394.84;5011127;28;20048;-74
2022/11/19 10:59:58;;;;;;;91.03;4.35;;;;;;;20.58;47.67;100373.56;4996025;28;20030;-75
2022/11/19 11:02:39;;;;;;;5.53;3.70;;;;;;;20.82;47.67;100388.72;5012223;28;20092;-74
2022/11/19 11:05:11;;;;;;;8.15;3.67;;;;;;;20.84;47.54;100392.09;5010779;28;20553;-75
2022/11/19 11:07:44;;;;;;;6.13;3.47;;;;;;;21.02;47.16;100397.94;5010669;28;20041;-74
2022/11/19 11:10:28;;;;;;;8.05;4.20;;;;;;;21.10;46.97;100392.34;5015943;28;20096;-75
2022/11/19 11:15:50;;;;;;;6.40;3.55;;;;;;;21.30;45.99;100393.34;5053088;28;20040;-74
2022/11/19 11:18:17;;;;;;;15.15;4.05;;;;;;;21.25;46.00;100390.38;5052579;28;20029;-74
2022/11/19 11:20:50;;;;;;;6.75;3.53;;;;;;;21.40;46.29;100393.84;5052480;28;20025;-75
2022/11/19 11:23:19;;;;;;;7.38;3.42;;;;;;;21.54;45.98;100400.25;5052450;28;20029;-76
2022/11/19 11:26:16;;;;;;;8.93;4.00;;;;;;;21.70;45.32;100388.97;5052706;28;20025;-75
2022/11/19 11:28:56;;;;;;;23.23;5.40;;;;;;;21.56;45.42;100366.13;5009833;28;20038;-75
2022/11/19 11:31:51;;;;;;;9.13;4.20;;;;;;;21.73;45.25;100398.66;5009850;28;20534;-74
2022/11/19 11:34:32;;;;;;;7.82;3.97;;;;;;;21.59;45.31;100381.31;4951628;29;20101;-75
2022/11/19 11:37:00;;;;;;;7.55;3.67;;;;;;;21.68;45.26;100402.00;4951740;29;20038;-74
2022/11/19 11:39:38;;;;;;;5.88;3.03;;;;;;;21.65;45.18;100416.94;4951462;29;20039;-74
2022/11/19 11:42:09;;;;;;;5.95;3.38;;;;;;;21.60;45.33;100403.03;4951669;29;20435;-74
2022/11/19 11:44:38;;;;;;;9.17;3.63;;;;;;;21.58;45.25;100418.81;4951635;29;20047;-76
2022/11/19 11:47:16;;;;;;;13.82;3.75;;;;;;;21.57;45.43;100430.78;4951494;29;20062;-74
2022/11/19 11:49:50;;;;;;;10.52;3.78;;;;;;;21.64;45.64;100426.22;4950886;29;20043;-76
2022/11/19 11:52:19;;;;;;;49.28;6.22;;;;;;;21.77;45.35;100416.38;4951455;29;20039;-75
2022/11/19 11:55:01;;;;;;;15.27;3.70;;;;;;;21.87;45.22;100411.38;4951525;29;20050;-74
2022/11/19 11:57:35;;;;;;;4.05;2.35;;;;;;;22.03;44.68;100408.31;4936498;29;20040;-75
2022/11/19 12:00:23;;;;;;;10.18;3.33;;;;;;;22.09;44.74;100411.09;4952780;29;20031;-75